Time;durP1;ratioP1;P1;durP2;ratioP2;P2;SDS_P1;SDS_P2;PMS_P1;PMS_P2;Temp;Humidity;BMP_temperature;BMP_pressure;BME280_temperature;BME280_humidity;BME280_pressure;Samples;Min_cycle;Max_cycle;Signal;HPM_P1;HPM_P2
2022/07/20 00:01:11;;;;;;;;;;;;;;;19.46;61.04;100438.69;6272104;28;19924;-69
2022/07/20 00:04:12;;;;;;;;;;;;;;;19.44;60.24;100440.66;6271991;28;19971;-69
2022/07/20 00:07:13;;;;;;;;;;;;;;;19.40;60.43;100436.63;6270810;28;19928;-69
2022/07/20 00:13:34;;;;;;;;;;;;;;;19.36;61.63;100436.06;6271833;28;19920;-69
2022/07/20 00:16:34;;;;;;;;;;;;;;;19.29;62.17;100443.72;6271782;28;19921;-69
2022/07/20 00:19:35;;;;;;;;;;;;;;;19.25;60.56;100439.69;6271817;28;20276;-69
2022/07/20 00:22:36;;;;;;;;;;;;;;;19.23;62.20;100436.34;6241542;28;19927;-69
2022/07/20 00:25:37;;;;;;;;;;;;;;;19.16;63.12;100432.59;6276831;28;19920;-69
2022/07/20 00:28:37;;;;;;;;;;;;;;;19.10;63.53;100433.97;6258938;28;19924;-70
2022/07/20 00:31:38;;;;;;;;;;;;;;;19.03;63.12;100432.03;6276782;28;19920;-72
2022/07/20 00:34:39;;;;;;;;;;;;;;;19.03;63.08;100437.31;6276732;28;19921;-75
2022/07/20 00:37:40;;;;;;;;;;;;;;;19.03;64.92;100437.31;6258861;28;19969;-69
2022/07/20 00:40:42;;;;;;;;;;;;;;;18.96;64.80;100433.56;6276568;28;19982;-75
2022/07/20 00:44:03;;;;;;;;;;;;;;;18.91;64.66;100432.16;6242324;28;19972;-75
2022/07/20 00:47:06;;;;;;;;;;;;;;;18.90;64.75;100427.00;6258662;28;19928;-69
2022/07/20 00:50:07;;;;;;;;;;;;;;;18.86;67.39;100422.97;6258442;28;20019;-69
2022/07/20 00:53:08;;;;;;;;;;;;;;;18.89;66.11;100434.09;6258582;28;19921;-75
2022/07/20 00:56:10;;;;;;;;;;;;;;;18.88;67.00;100426.31;6276036;28;19928;-75
2022/07/20 00:59:11;;;;;;;;;;;;;;;18.83;66.73;100425.91;6276080;28;19924;-75
2022/07/20 01:02:12;;;;;;;;;;;;;;;18.81;65.95;100433.13;6276069;28;19971;-69
2022/07/20 01:05:15;;;;;;;;;;;;;;;18.77;67.97;100437.00;6276015;28;19927;-75
2022/07/20 01:08:17;;;;;;;;;;;;;;;18.71;67.86;100433.06;6258609;28;20359;-69
2022/07/20 01:11:18;;;;;;;;;;;;;;;18.66;66.40;100430.84;6258127;28;19963;-69
2022/07/20 01:14:19;;;;;;;;;;;;;;;18.65;67.26;100430.97;6271151;28;19920;-69
2022/07/20 01:17:20;;;;;;;;;;;;;;;18.62;65.62;100429.47;6274590;28;20339;-69
2022/07/20 01:20:23;;;;;;;;;;;;;;;18.62;66.35;100432.09;6257970;28;19921;-69
2022/07/20 01:23:24;;;;;;;;;;;;;;;18.62;68.13;100432.09;6275596;28;20371;-69
2022/07/20 01:26:25;;;;;;;;;;;;;;;18.60;68.27;100435.84;6257898;28;19921;-69
2022/07/20 01:29:26;;;;;;;;;;;;;;;18.53;67.09;100427.63;6257509;28;20381;-75
2022/07/20 01:32:26;;;;;;;;;;;;;;;18.50;66.44;100427.91;6256388;28;19921;-75
2022/07/20 01:35:29;;;;;;;;;;;;;;;18.46;67.75;100426.50;6274094;28;19921;-75
2022/07/20 01:38:30;;;;;;;;;;;;;;;18.44;68.35;100420.50;6274049;28;20410;-75
2022/07/20 01:41:31;;;;;;;;;;;;;;;18.36;70.72;100423.00;6257326;28;19920;-75
2022/07/20 01:44:34;;;;;;;;;;;;;;;18.25;72.27;100418.66;6257468;28;19921;-75
2022/07/20 01:47:35;;;;;;;;;;;;;;;18.25;70.62;100431.88;6257279;28;19920;-74
2022/07/20 01:50:37;;;;;;;;;;;;;;;18.25;69.78;100423.94;6275466;28;19920;-70
2022/07/20 01:53:38;;;;;;;;;;;;;;;18.23;68.38;100432.00;6275038;28;20387;-74
2022/07/20 01:56:42;;;;;;;;;;;;;;;18.23;70.75;100429.34;6274732;28;19962;-69
2022/07/20 01:59:43;;;;;;;;;;;;;;;18.23;70.50;100426.72;6274681;28;19925;-75
2022/07/20 02:02:43;;;;;;;;;;;;;;;18.22;71.66;100427.69;6273571;28;20002;-70
2022/07/20 02:05:45;;;;;;;;;;;;;;;18.10;70.27;100432.22;6256963;28;19921;-69
2022/07/20 02:08:48;;;;;;;;;;;;;;;17.99;73.68;100428.84;6274600;28;19925;-69
2022/07/20 02:11:48;;;;;;;;;;;;;;;17.97;71.47;100428.13;6274233;28;19966;-74
2022/07/20 02:14:49;;;;;;;;;;;;;;;17.93;73.13;100422.28;6256722;28;19921;-69
2022/07/20 02:17:50;;;;;;;;;;;;;;;17.94;74.39;100425.78;6256627;28;19964;-75
2022/07/20 02:20:51;;;;;;;;;;;;;;;17.90;73.57;100427.84;6256607;28;20272;-69
2022/07/20 02:23:52;;;;;;;;;;;;;;;17.78;75.73;100421.75;6256373;28;19924;-69
2022/07/20 02:26:53;;;;;;;;;;;;;;;17.75;74.77;100419.41;6239833;28;19924;-75
2022/07/20 02:29:54;;;;;;;;;;;;;;;17.75;74.65;100423.81;6256003;28;19921;-69
2022/07/20 02:32:54;;;;;;;;;;;;;;;17.73;74.33;100416.06;6256167;28;19921;-68
2022/07/20 02:35:55;;;;;;;;;;;;;;;17.71;72.94;100415.34;6273758;28;19921;-75
2022/07/20 02:38:56;;;;;;;;;;;;;;;17.69;74.13;100422.56;6273850;28;20648;-75
2022/07/20 02:41:57;;;;;;;;;;;;;;;17.65;75.52;100424.63;6255988;28;19921;-75
2022/07/20 02:44:58;;;;;;;;;;;;;;;17.59;76.44;100426.94;6255743;28;19927;-69
2022/07/20 02:48:02;;;;;;;;;;;;;;;17.52;74.95;100430.09;6255826;28;19920;-69
2022/07/20 02:51:03;;;;;;;;;;;;;;;17.47;77.86;100426.16;6256351;28;19963;-75
2022/07/20 02:54:04;;;;;;;;;;;;;;;17.43;78.12;100425.59;6239395;28;20272;-75
2022/07/20 02:57:05;;;;;;;;;;;;;;;17.44;76.96;100431.69;6255368;28;20401;-69
2022/07/20 03:00:07;;;;;;;;;;;;;;;17.43;76.63;100425.59;6255546;28;19921;-69
2022/07/20 03:03:09;;;;;;;;;;;;;;;17.43;73.56;100433.50;6273231;28;19921;-75
2022/07/20 03:06:10;;;;;;;;;;;;;;;17.44;75.43;100443.09;6273164;28;19921;-75
2022/07/20 03:09:10;;;;;;;;;;;;;;;17.50;76.57;100441.72;6273295;28;19920;-74
2022/07/20 03:12:12;;;;;;;;;;;;;;;17.51;76.32;100440.78;6255048;28;19920;-75
2022/07/20 03:15:13;;;;;;;;;;;;;;;17.48;78.61;100435.75;6273015;28;20290;-75
2022/07/20 03:18:14;;;;;;;;;;;;;;;17.46;79.00;100435.03;6238852;28;20379;-69
2022/07/20 03:21:14;;;;;;;;;;;;;;;17.42;79.21;100445.03;6255154;28;19948;-69
2022/07/20 03:24:15;;;;;;;;;;;;;;;17.45;78.97;100443.94;6255107;28;19928;-69
2022/07/20 03:27:16;;;;;;;;;;;;;;;17.46;79.19;100450.84;6255187;28;19929;-75
2022/07/20 03:30:17;;;;;;;;;;;;;;;17.44;78.45;100450.16;6238408;28;19967;-70
2022/07/20 03:33:18;;;;;;;;;;;;;;;17.36;80.55;100458.72;6254924;28;19921;-69
2022/07/20 03:36:21;;;;;;;;;;;;;;;17.43;75.08;100454.59;6238239;28;19920;-69
2022/07/20 03:39:22;;;;;;;;;;;;;;;17.48;71.82;100462.13;6255212;28;19927;-69
2022/07/20 03:42:23;;;;;;;;;;;;;;;17.53;75.02;100455.50;6272460;28;19924;-75
2022/07/20 03:45:24;;;;;;;;;;;;;;;17.54;77.11;100458.97;6272510;28;20379;-75
2022/07/20 03:48:25;;;;;;;;;;;;;;;17.58;78.58;100457.75;6272390;28;19930;-75
2022/07/20 03:51:25;;;;;;;;;;;;;;;17.59;77.79;100455.97;6238096;28;20382;-75
2022/07/20 03:54:26;;;;;;;;;;;;;;;17.61;76.87;100459.31;6238106;28;20298;-74
2022/07/20 03:57:27;;;;;;;;;;;;;;;17.64;78.26;100456.41;6254032;28;19921;-75
2022/07/20 04:00:28;;;;;;;;;;;;;;;17.65;78.48;100464.19;6272225;28;19921;-75
2022/07/20 04:03:29;;;;;;;;;;;;;;;17.68;73.59;100463.09;6254251;28;19994;-69
2022/07/20 04:06:30;;;;;;;;;;;;;;;17.80;72.65;100472.63;6272191;28;19925;-75
2022/07/20 04:09:46;;;;;;;;;;;;;;;17.87;73.51;100473.81;6271797;28;19931;-69
2022/07/20 04:12:47;;;;;;;;;;;;;;;17.93;74.48;100475.06;6256297;28;19925;-69
2022/07/20 04:15:48;;;;;;;;;;;;;;;18.00;73.41;100470.13;6271896;28;19924;-69
2022/07/20 04:18:49;;;;;;;;;;;;;;;18.06;72.94;100473.06;6272032;28;19921;-74
2022/07/20 04:21:53;;;;;;;;;;;;;;;18.13;71.75;100471.56;6271752;28;19943;-69
2022/07/20 04:24:55;;;;;;;;;;;;;;;18.20;72.34;100473.66;6237683;28;20021;-75
2022/07/20 04:27:58;;;;;;;;;;;;;;;18.30;72.76;100477.19;6271803;28;19951;-75
2022/07/20 04:30:58;;;;;;;;;;;;;;;18.37;70.32;100478.34;6237732;28;19964;-74
2022/07/20 04:34:01;;;;;;;;;;;;;;;18.43;69.38;100476.94;6254238;28;19943;-75
2022/07/20 04:37:02;;;;;;;;;;;;;;;18.51;69.13;100474.47;6271776;28;19920;-75
2022/07/20 04:40:04;;;;;;;;;;;;;;;18.59;67.24;100472.00;6254084;28;19932;-70
2022/07/20 04:43:05;;;;;;;;;;;;;;;18.65;66.29;100458.25;6271512;28;19943;-69
2022/07/20 04:46:06;;;;;;;;;;;;;;;18.78;66.78;100462.44;6253850;28;19920;-69
2022/07/20 04:49:07;;;;;;;;;;;;;;;18.86;64.65;100468.75;6253760;28;19925;-69
2022/07/20 04:52:09;;;;;;;;;;;;;;;18.99;64.31;100475.59;6237287;28;19966;-75
2022/07/20 04:55:09;;;;;;;;;;;;;;;19.07;64.13;100473.09;6237549;28;19920;-75
2022/07/20 04:58:10;;;;;;;;;;;;;;;19.21;62.65;100479.75;6221126;28;19921;-75
2022/07/20 05:01:11;;;;;;;;;;;;;;;19.29;63.58;100486.06;6253676;28;20329;-69
2022/07/20 05:04:11;;;;;;;;;;;;;;;19.40;63.71;100479.78;6253487;28;19921;-69
2022/07/20 05:07:13;;;;;;;;;;;;;;;19.52;62.01;100491.06;6272900;28;19924;-69
2022/07/20 05:10:14;;;;;;;;;;;;;;;19.66;62.35;100497.69;6275851;28;20393;-69
2022/07/20 05:13:15;;;;;;;;;;;;;;;19.79;60.76;100497.44;6262408;28;19920;-69
2022/07/20 05:16:15;;;;;;;;;;;;;;;19.95;61.10;100494.19;6275858;28;19927;-70
2022/07/20 05:19:19;;;;;;;;;;;;;;;20.09;60.71;100499.03;6266897;28;20383;-71
2022/07/20 05:22:22;;;;;;;;;;;;;;;20.18;60.03;100497.31;6250875;28;19928;-69
2022/07/20 05:25:22;;;;;;;;;;;;;;;20.32;59.91;100503.00;6251000;28;20414;-75
2022/07/20 05:28:24;;;;;;;;;;;;;;;20.49;59.04;100495.25;6216918;28;19931;-69
2022/07/20 05:31:25;;;;;;;;;;;;;;;20.66;59.61;100494.50;6249400;28;19964;-75
2022/07/20 05:34:26;;;;;;;;;;;;;;;20.85;58.52;100495.34;6250733;28;19966;-75
2022/07/20 05:37:27;;;;;;;;;;;;;;;21.03;57.47;100501.50;6263306;28;19921;-75
2022/07/20 05:40:28;;;;;;;;;;;;;;;21.22;57.15;100511.16;6264196;28;19937;-70
2022/07/20 05:43:30;;;;;;;;;;;;;;;21.38;56.29;100502.50;6249041;28;20376;-70
2022/07/20 05:46:31;;;;;;;;;;;;;;;21.57;56.71;100506.81;6250460;28;19983;-69
2022/07/20 05:49:32;;;;;;;;;;;;;;;21.71;55.11;100514.25;6232574;28;19921;-69
2022/07/20 05:52:33;;;;;;;;;;;;;;;21.87;52.87;100510.88;6248932;28;20284;-69
2022/07/20 05:55:37;;;;;;;;;;;;;;;22.06;55.54;100514.31;6248864;28;19928;-70
2022/07/20 05:58:38;;;;;;;;;;;;;;;22.24;57.25;100514.28;6248788;28;19931;-75
2022/07/20 06:01:43;;;;;;;;;;;;;;;22.38;53.61;100516.31;6240272;28;20257;-76
2022/07/20 06:04:44;;;;;;;;;;;;;;;22.54;52.29;100519.03;6233174;28;19921;-69
2022/07/20 06:07:47;;;;;;;;;;;;;;;22.72;53.02;100510.97;6240760;28;19971;-70
2022/07/20 06:10:48;;;;;;;;;;;;;;;22.93;52.96;100509.69;6238836;28;19921;-75
2022/07/20 06:13:48;;;;;;;;;;;;;;;23.15;52.01;100512.78;6248656;28;19967;-75
2022/07/20 06:16:49;;;;;;;;;;;;;;;23.36;47.23;100514.97;6232046;28;19921;-75
2022/07/20 06:19:50;;;;;;;;;;;;;;;23.48;48.95;100511.78;6237717;28;19920;-69
2022/07/20 06:22:53;;;;;;;;;;;;;;;23.74;51.71;100514.28;6256789;28;20370;-69
2022/07/20 06:25:54;;;;;;;;;;;;;;;23.97;49.65;100510.09;6262879;28;19931;-70
2022/07/20 06:28:55;;;;;;;;;;;;;;;24.16;47.33;100514.25;6236686;28;19974;-76
2022/07/20 06:31:55;;;;;;;;;;;;;;;24.37;48.09;100511.00;6249227;28;20350;-69
2022/07/20 06:34:56;;;;;;;;;;;;;;;24.58;44.81;100513.09;6248073;28;19920;-75
2022/07/20 06:37:58;;;;;;;;;;;;;;;24.87;44.24;100518.63;6264049;28;19928;-75
2022/07/20 06:40:59;;;;;;;;;;;;;;;25.08;43.91;100517.16;6244639;28;19927;-75
2022/07/20 06:44:00;;;;;;;;;;;;;;;25.26;41.61;100512.38;6223250;28;20313;-69
2022/07/20 06:47:01;;;;;;;;;;;;;;;25.48;42.31;100513.38;6223312;28;19925;-69
2022/07/20 06:50:04;;;;;;;;;;;;;;;25.64;39.73;100506.25;6232473;28;19928;-70
2022/07/20 06:53:04;;;;;;;;;;;;;;;25.93;45.02;100508.16;6244416;28;19974;-75
2022/07/20 06:56:05;;;;;;;;;;;;;;;26.17;40.94;100515.09;6247628;28;19925;-75
2022/07/20 06:59:06;;;;;;;;;;;;;;;26.40;40.13;100515.00;6247531;28;19928;-75
2022/07/20 07:02:09;;;;;;;;;;;;;;;26.64;38.80;100516.53;6251342;28;19970;-75
2022/07/20 07:05:10;;;;;;;;;;;;;;;26.90;39.66;100516.03;6261231;28;20382;-75
2022/07/20 07:08:11;;;;;;;;;;;;;;;27.11;35.49;100511.69;6237248;28;19920;-69
2022/07/20 07:11:12;;;;;;;;;;;;;;;27.32;35.27;100505.53;6243413;28;19921;-70
2022/07/20 07:14:12;;;;;;;;;;;;;;;27.43;35.36;100510.41;6238684;28;19928;-69
2022/07/20 07:17:13;;;;;;;;;;;;;;;27.65;34.48;100505.81;6255162;28;19920;-70
2022/07/20 07:20:15;;;;;;;;;;;;;;;27.96;33.63;100501.94;6241613;28;19921;-69
2022/07/20 07:23:16;;;;;;;;;;;;;;;28.02;33.50;100497.63;6263605;28;20332;-69
2022/07/20 07:26:17;;;;;;;;;;;;;;;28.25;33.54;100500.03;6224458;28;19921;-76
2022/07/20 07:29:19;;;;;;;;;;;;;;;28.42;32.60;100505.91;6251860;28;20375;-75
2022/07/20 07:32:20;;;;;;;;;;;;;;;28.42;32.86;100508.59;6251022;28;19960;-76
2022/07/20 07:35:21;;;;;;;;;;;;;;;28.56;31.81;100507.66;6238565;28;20047;-70
2022/07/20 07:38:22;;;;;;;;;;;;;;;28.78;35.72;100505.63;6254731;28;19966;-70
2022/07/20 07:41:22;;;;;;;;;;;;;;;29.03;33.05;100505.06;6254685;28;19927;-70
2022/07/20 07:44:24;;;;;;;;;;;;;;;29.08;29.69;100500.75;6253612;28;19927;-69
2022/07/20 07:47:25;;;;;;;;;;;;;;;29.26;30.79;100497.50;6267313;28;19960;-69
2022/07/20 07:50:26;;;;;;;;;;;;;;;29.52;30.32;100502.03;6254559;28;19920;-75
2022/07/20 07:53:27;;;;;;;;;;;;;;;29.62;29.76;100498.13;6254539;28;19959;-75
2022/07/20 07:56:28;;;;;;;;;;;;;;;29.80;31.30;100494.84;6247599;28;20336;-75
2022/07/20 07:59:29;;;;;;;;;;;;;;;29.99;28.98;100483.19;6246234;28;19975;-70
2022/07/20 08:02:29;;;;;;;;;;;;;;;30.13;31.34;100490.19;6246251;28;19921;-70
2022/07/20 08:05:31;;;;;;;;;;;;;;;30.36;28.87;100498.84;6229787;28;19924;-70
2022/07/20 08:08:32;;;;;;;;;;;;;;;30.57;29.55;100495.84;6247264;28;19928;-69
2022/07/20 08:11:33;;;;;;;;;;;;;;;30.73;28.21;100489.13;6247281;28;19928;-69
2022/07/20 08:14:34;;;;;;;;;;;;;;;30.83;28.13;100489.50;6247125;28;20311;-70
2022/07/20 08:17:34;;;;;;;;;;;;;;;31.06;27.93;100483.56;6247129;28;19921;-76
2022/07/20 08:20:35;;;;;;;;;;;;;;;31.30;30.45;100478.41;6229616;28;20027;-76
2022/07/20 08:23:36;;;;;;;;;;;;;;;31.28;27.67;100477.81;6229561;28;19933;-70
2022/07/20 08:26:37;;;;;;;;;;;;;;;31.42;28.05;100479.34;6213143;28;19925;-70
2022/07/20 08:29:38;;;;;;;;;;;;;;;31.61;27.10;100479.41;6247070;28;20461;-76
2022/07/20 08:32:39;;;;;;;;;;;;;;;31.56;25.84;100474.69;6247024;28;19925;-69
2022/07/20 08:35:40;;;;;;;;;;;;;;;31.44;25.47;100473.75;6230824;28;19921;-76
2022/07/20 08:38:43;;;;;;;;;;;;;;;31.27;25.96;100470.75;6234877;28;20016;-75
2022/07/20 08:41:44;;;;;;;;;;;;;;;31.73;26.59;100472.22;6254936;28;20379;-69
2022/07/20 08:44:45;;;;;;;;;;;;;;;31.86;25.54;100469.41;6258765;28;19921;-69
2022/07/20 08:47:48;;;;;;;;;;;;;;;32.16;23.93;100470.56;6258633;28;19921;-69
2022/07/20 08:50:49;;;;;;;;;;;;;;;31.82;24.71;100472.78;6226065;28;19928;-70
2022/07/20 08:53:50;;;;;;;;;;;;;;;32.22;26.67;100470.47;6216875;28;19921;-69
2022/07/20 08:56:51;;;;;;;;;;;;;;;32.48;25.08;100472.00;6258472;28;20283;-76
2022/07/20 08:59:51;;;;;;;;;;;;;;;32.64;24.86;100472.47;6258543;28;19920;-69
2022/07/20 09:02:52;;;;;;;;;;;;;;;32.93;26.15;100473.50;6258290;28;20019;-69
2022/07/20 09:06:04;;;;;;;;;;;;;;;32.97;22.86;100469.28;6258120;28;20311;-69
2022/07/20 09:09:06;;;;;;;;;;;;;;;33.26;24.33;100461.38;6258368;28;19921;-69
2022/07/20 09:12:06;;;;;;;;;;;;;;;33.18;23.20;100461.72;6257906;28;19920;-69
2022/07/20 09:15:07;;;;;;;;;;;;;;;33.22;23.66;100454.78;6241652;28;19925;-69
2022/07/20 09:18:10;;;;;;;;;;;;;;;33.29;22.10;100453.59;6258145;28;20338;-69
2022/07/20 09:21:11;;;;;;;;;;;;;;;33.43;21.98;100451.47;6275893;28;19978;-69
2022/07/20 09:24:12;;;;;;;;;;;;;;;33.62;23.10;100454.09;6241282;28;19964;-69
2022/07/20 09:27:12;;;;;;;;;;;;;;;33.73;23.80;100447.88;6241235;28;19927;-69
2022/07/20 09:30:18;;;;;;;;;;;;;;;33.62;20.80;100443.28;6241320;28;19925;-69
2022/07/20 09:33:26;;;;;;;;;;;;;;;33.90;22.62;100446.06;6275500;28;19920;-70
2022/07/20 09:36:28;;;;;;;;;;;;;;;33.75;23.77;100440.34;6240916;28;19951;-70
2022/07/20 09:39:29;;;;;;;;;;;;;;;33.95;21.49;100452.63;6241087;28;19928;-70
2022/07/20 09:42:40;;;;;;;;;;;;;;;34.18;22.01;100444.47;6257587;28;19920;-70
2022/07/20 09:45:42;;;;;;;;;;;;;;;34.05;22.69;100442.03;6275240;28;19920;-70
2022/07/20 09:48:47;;;;;;;;;;;;;;;34.07;21.63;100445.31;6257263;28;19925;-69
2022/07/20 09:51:57;;;;;;;;;;;;;;;34.31;20.86;100440.69;6257112;28;19920;-69
2022/07/20 09:54:57;;;;;;;;;;;;;;;34.43;21.02;100444.16;6256121;28;20379;-75
2022/07/20 09:57:58;;;;;;;;;;;;;;;34.55;21.27;100435.16;6274861;28;19966;-75
2022/07/20 10:01:00;;;;;;;;;;;;;;;34.77;21.52;100424.47;6240456;28;19920;-75
2022/07/20 10:04:02;;;;;;;;;;;;;;;34.05;21.10;100423.06;6256717;28;19921;-75
2022/07/20 10:07:05;;;;;;;;;;;;;;;34.66;22.15;100426.19;6256771;28;19999;-70
2022/07/20 10:10:06;;;;;;;;;;;;;;;34.69;20.53;100423.78;6256535;28;19920;-75
2022/07/20 10:13:07;;;;;;;;;;;;;;;34.62;21.39;100422.28;6274345;28;20051;-75
2022/07/20 10:16:18;;;;;;;;;;;;;;;34.86;22.81;100414.84;6256566;28;19921;-75
2022/07/20 10:19:21;;;;;;;;;;;;;;;34.88;20.51;100412.72;6274415;28;20027;-75
2022/07/20 10:22:22;;;;;;;;;;;;;;;35.20;21.87;100409.47;6274288;28;19920;-75
2022/07/20 10:25:27;;;;;;;;;;;;;;;35.31;22.39;100408.53;6256503;28;19927;-75
2022/07/20 10:28:35;;;;;;;;;;;;;;;34.92;21.55;100398.44;6274287;28;19921;-75
2022/07/20 10:31:52;;;;;;;;;;;;;;;35.10;21.29;100400.06;6256291;28;19974;-75
2022/07/20 10:34:54;;;;;;;;;;;;;;;35.03;21.04;100396.72;6256046;28;19920;-75
2022/07/20 10:37:56;;;;;;;;;;;;;;;35.23;20.45;100393.53;6256009;28;19928;-75
2022/07/20 10:44:27;;;;;;;;;;;;;;;35.77;19.85;100384.78;6255946;28;19928;-69
2022/07/20 10:47:48;;;;;;;;;;;;;;;34.84;20.54;100390.72;6256022;28;19924;-75
2022/07/20 10:50:50;;;;;;;;;;;;;;;34.65;20.38;100383.88;6255674;28;19976;-75
2022/07/20 10:53:51;;;;;;;;;;;;;;;34.17;20.39;100372.44;6273642;28;19948;-70
2022/07/20 10:56:52;;;;;;;;;;;;;;;35.12;21.98;100376.22;6239238;28;20329;-76
2022/07/20 11:00:14;;;;;;;;;;;;;;;34.53;20.46;100373.09;6255448;28;19921;-69
2022/07/20 11:03:21;;;;;;;;;;;;;;;35.51;21.01;100370.84;6273411;28;20019;-70
2022/07/20 11:06:23;;;;;;;;;;;;;;;35.71;19.79;100362.16;6255106;28;20541;-70
2022/07/20 11:09:30;;;;;;;;;;;;;;;34.19;20.58;100362.19;6273338;28;19925;-70
2022/07/20 11:12:31;;;;;;;;;;;;;;;35.38;21.05;100357.66;6242610;28;19932;-69
2022/07/20 11:15:51;;;;;;;;;;;;;;;35.80;21.97;100357.13;6230803;28;19921;-70
2022/07/20 11:18:53;;;;;;;;;;;;;;;35.82;20.12;100356.88;6247719;28;19944;-69
2022/07/20 11:21:54;;;;;;;;;;;;;;;35.65;19.91;100355.03;6251623;28;19924;-76
2022/07/20 11:24:55;;;;;;;;;;;;;;;35.53;21.00;100346.19;6238983;28;19921;-76
2022/07/20 11:28:05;;;;;;;;;;;;;;;34.58;20.85;100348.00;6230337;28;19959;-69
2022/07/20 11:31:07;;;;;;;;;;;;;;;35.10;21.23;100337.69;6253100;28;20023;-75
2022/07/20 11:34:07;;;;;;;;;;;;;;;35.58;20.25;100331.84;6242682;28;20370;-70
2022/07/20 11:37:08;;;;;;;;;;;;;;;35.13;20.36;100336.41;6220960;28;19921;-76
2022/07/20 11:40:15;;;;;;;;;;;;;;;35.53;20.00;100338.03;6213952;28;19921;-76
2022/07/20 11:43:16;;;;;;;;;;;;;;;35.66;20.06;100340.38;6234384;28;19927;-70
2022/07/20 11:46:17;;;;;;;;;;;;;;;36.03;18.82;100347.03;6272271;28;19921;-70
2022/07/20 11:49:19;;;;;;;;;;;;;;;35.74;19.72;100335.59;6254421;28;20011;-70
2022/07/20 11:52:21;;;;;;;;;;;;;;;36.10;19.93;100342.25;6238165;28;19921;-71
2022/07/20 11:55:35;;;;;;;;;;;;;;;36.36;21.96;100334.34;6254658;28;20414;-71
2022/07/20 11:58:37;;;;;;;;;;;;;;;36.40;18.52;100330.06;6189291;28;19948;-71
2022/07/20 12:01:38;;;;;;;;;;;;;;;35.90;19.25;100324.66;6205252;28;19922;-76
2022/07/20 12:04:39;;;;;;;;;;;;;;;35.42;19.95;100331.66;6172947;28;20023;-76
2022/07/20 12:11:02;;;;;;;;;;;;;;;35.63;19.26;100324.59;6222881;28;19953;-75
2022/07/20 12:14:03;;;;;;;;;;;;;;;34.81;20.62;100323.44;6237226;28;19921;-70
2022/07/20 12:17:11;;;;;;;;;;;;;;;35.44;20.10;100315.97;6232550;28;19936;-70
2022/07/20 12:20:12;;;;;;;;;;;;;;;35.88;24.76;100324.09;6255497;28;19921;-71
2022/07/20 12:23:24;;;;;;;;;;;;;;;36.17;19.97;100306.75;6254085;28;19921;-71
2022/07/20 12:26:26;;;;;;;;;;;;;;;36.22;19.47;100315.78;6254090;28;20298;-77
2022/07/20 12:29:27;;;;;;;;;;;;;;;35.46;20.58;100308.41;6254014;28;19921;-71
2022/07/20 12:32:32;;;;;;;;;;;;;;;35.05;20.05;100298.88;6244083;28;19921;-70
2022/07/20 12:35:34;;;;;;;;;;;;;;;35.28;20.10;100295.13;6234019;28;19921;-76
2022/07/20 12:38:35;;;;;;;;;;;;;;;35.01;20.76;100305.88;6263615;28;19925;-70
2022/07/20 12:41:36;;;;;;;;;;;;;;;35.53;20.10;100296.53;6259547;28;19921;-70
2022/07/20 12:44:36;;;;;;;;;;;;;;;35.61;20.40;100302.31;6253750;28;20011;-71
2022/07/20 12:47:37;;;;;;;;;;;;;;;35.56;19.96;100294.09;6237520;28;19921;-71
2022/07/20 12:50:38;;;;;;;;;;;;;;;35.23;19.64;100289.63;6253683;28;19982;-70
2022/07/20 12:53:40;;;;;;;;;;;;;;;34.85;19.46;100286.66;6253934;28;19925;-76
2022/07/20 12:56:42;;;;;;;;;;;;;;;35.29;20.39;100275.91;6254978;28;19925;-76
2022/07/20 12:59:42;;;;;;;;;;;;;;;35.17;19.64;100269.78;6237261;28;19975;-70
2022/07/20 13:02:43;;;;;;;;;;;;;;;35.34;19.71;100269.72;6237157;28;19955;-71
2022/07/20 13:05:44;;;;;;;;;;;;;;;35.08;19.63;100260.41;6253929;28;19960;-71
2022/07/20 13:08:45;;;;;;;;;;;;;;;35.30;20.09;100255.84;6253874;28;19921;-71
2022/07/20 13:11:47;;;;;;;;;;;;;;;35.36;21.11;100264.06;6253826;28;19921;-71
2022/07/20 13:14:47;;;;;;;;;;;;;;;34.85;20.18;100256.84;6218246;28;20007;-71
2022/07/20 13:17:48;;;;;;;;;;;;;;;34.92;20.13;100252.09;6213222;28;20014;-76
2022/07/20 13:20:50;;;;;;;;;;;;;;;34.78;20.01;100252.66;6230193;28;19964;-76
2022/07/20 13:23:50;;;;;;;;;;;;;;;34.90;19.78;100248.78;6212405;28;20427;-76
2022/07/20 13:26:51;;;;;;;;;;;;;;;34.70;20.54;100238.47;6212539;28;20368;-75
2022/07/20 13:29:52;;;;;;;;;;;;;;;34.48;20.51;100241.09;6209176;28;19921;-75
2022/07/20 13:32:53;;;;;;;;;;;;;;;34.40;21.06;100244.22;6176391;28;20372;-75
2022/07/20 13:35:54;;;;;;;;;;;;;;;34.80;21.49;100234.25;6208569;28;19983;-75
2022/07/20 13:38:55;;;;;;;;;;;;;;;35.03;20.15;100234.06;6226061;28;19925;-70
2022/07/20 13:41:55;;;;;;;;;;;;;;;34.46;20.08;100240.53;6208500;28;19972;-76
2022/07/20 13:44:56;;;;;;;;;;;;;;;34.52;20.46;100225.19;6208244;28;20008;-77
2022/07/20 13:47:57;;;;;;;;;;;;;;;34.77;19.93;100223.94;6208451;28;20284;-75
2022/07/20 13:50:58;;;;;;;;;;;;;;;34.74;20.51;100224.41;6191865;28;20434;-75
2022/07/20 13:53:59;;;;;;;;;;;;;;;34.64;20.56;100225.09;6191909;28;19928;-75
2022/07/20 13:57:00;;;;;;;;;;;;;;;34.70;20.95;100213.28;6225559;28;20419;-69
2022/07/20 14:00:03;;;;;;;;;;;;;;;34.63;20.31;100205.28;6191813;28;19925;-76
2022/07/20 14:03:04;;;;;;;;;;;;;;;34.60;20.30;100208.50;6191743;28;19927;-75
2022/07/20 14:06:05;;;;;;;;;;;;;;;34.30;19.54;100214.28;6207808;28;19926;-75
2022/07/20 14:09:06;;;;;;;;;;;;;;;33.98;20.67;100206.69;6191663;28;19944;-75
2022/07/20 14:12:07;;;;;;;;;;;;;;;33.84;20.66;100195.34;6207611;28;20339;-69
2022/07/20 14:15:09;;;;;;;;;;;;;;;34.04;20.81;100197.59;6223887;28;19928;-69
2022/07/20 14:18:11;;;;;;;;;;;;;;;34.13;20.62;100195.31;6223726;28;19921;-75
2022/07/20 14:21:12;;;;;;;;;;;;;;;33.91;21.19;100198.75;6223847;28;19921;-75
2022/07/20 14:24:12;;;;;;;;;;;;;;;34.09;21.63;100189.53;6223784;28;19922;-69
2022/07/20 14:27:14;;;;;;;;;;;;;;;34.14;21.68;100193.44;6224887;28;19921;-75
2022/07/20 14:30:15;;;;;;;;;;;;;;;34.01;20.54;100183.72;6223610;28;19932;-75
2022/07/20 14:33:16;;;;;;;;;;;;;;;34.14;20.41;100185.31;6224860;28;19928;-75
2022/07/20 14:36:17;;;;;;;;;;;;;;;33.76;20.67;100181.41;6219566;28;19921;-75
2022/07/20 14:39:18;;;;;;;;;;;;;;;33.72;20.52;100187.28;6256952;28;20007;-69
2022/07/20 14:42:18;;;;;;;;;;;;;;;33.75;21.03;100174.34;6242841;28;19921;-69
2022/07/20 14:45:19;;;;;;;;;;;;;;;34.05;20.24;100180.28;6249533;28;19928;-69
2022/07/20 14:48:21;;;;;;;;;;;;;;;33.98;21.10;100173.41;6247863;28;20019;-75
2022/07/20 14:51:22;;;;;;;;;;;;;;;34.25;19.59;100173.59;6236719;28;19925;-75
2022/07/20 14:54:23;;;;;;;;;;;;;;;34.24;20.93;100158.38;6256190;28;19962;-75
2022/07/20 14:57:23;;;;;;;;;;;;;;;33.72;20.46;100165.66;6272325;28;20375;-75
2022/07/20 15:00:24;;;;;;;;;;;;;;;34.01;21.19;100168.28;6252927;28;19932;-69
2022/07/20 15:03:25;;;;;;;;;;;;;;;33.90;20.17;100158.38;6248723;28;19925;-69
2022/07/20 15:06:27;;;;;;;;;;;;;;;34.06;19.45;100154.84;6247604;28;19944;-71
2022/07/20 15:09:27;;;;;;;;;;;;;;;34.08;19.19;100143.78;6247335;28;19921;-70
2022/07/20 15:12:28;;;;;;;;;;;;;;;33.62;18.69;100148.41;6248308;28;19921;-75
2022/07/20 15:15:30;;;;;;;;;;;;;;;33.76;19.23;100149.75;6248586;28;19928;-75
2022/07/20 15:18:31;;;;;;;;;;;;;;;33.76;20.37;100141.63;6248194;28;19974;-75
2022/07/20 15:21:32;;;;;;;;;;;;;;;33.63;20.48;100144.66;6214563;28;19921;-70
2022/07/20 15:24:33;;;;;;;;;;;;;;;33.81;20.91;100140.91;6248139;28;19924;-75
2022/07/20 15:27:34;;;;;;;;;;;;;;;33.79;20.21;100138.47;6233129;28;19925;-75
2022/07/20 15:30:35;;;;;;;;;;;;;;;33.97;23.06;100148.19;6245846;28;19925;-75
2022/07/20 15:33:36;;;;;;;;;;;;;;;33.95;20.72;100141.41;6238795;28;19920;-75
2022/07/20 15:36:37;;;;;;;;;;;;;;;33.73;20.43;100139.44;6238368;28;19921;-75
2022/07/20 15:39:41;;;;;;;;;;;;;;;33.87;22.77;100135.34;6225325;28;19925;-75
2022/07/20 15:42:42;;;;;;;;;;;;;;;33.84;23.09;100135.81;6260158;28;19921;-69